Time;durP1;ratioP1;P1;durP2;ratioP2;P2;SDS_P1;SDS_P2;PMS_P1;PMS_P2;Temp;Humidity;BMP_temperature;BMP_pressure;BME280_temperature;BME280_humidity;BME280_pressure;Samples;Min_cycle;Max_cycle;Signal;HPM_P1;HPM_P2
2024/01/20 00:02:32;;;;;;;5.35;4.93;;;;;;;;;;4943790;29;20045;-86
2024/01/20 00:05:15;;;;;;;5.30;4.65;;;;;;;;;;4940765;29;20117;-84
2024/01/20 00:07:59;;;;;;;6.22;4.95;;;;;;;;;;4924770;29;20039;-85
2024/01/20 00:10:43;;;;;;;20.48;4.65;;;;;;;;;;4934949;29;20126;-85
2024/01/20 00:13:27;;;;;;;8.20;4.90;;;;;;;;;;4920450;29;20123;-85
2024/01/20 00:16:11;;;;;;;8.02;5.30;;;;;;;;;;4937647;29;20059;-84
2024/01/20 00:18:55;;;;;;;6.18;4.90;;;;;;;;;;4926892;29;20034;-85
2024/01/20 00:21:39;;;;;;;6.13;5.03;;;;;;;;;;4931184;29;20098;-84
2024/01/20 00:24:23;;;;;;;7.50;5.03;;;;;;;;;;4927937;29;20107;-84
2024/01/20 00:27:07;;;;;;;9.27;5.10;;;;;;;;;;4938074;29;20050;-84
2024/01/20 00:29:52;;;;;;;5.35;4.93;;;;;;;;;;4930195;29;20042;-85
2024/01/20 00:32:36;;;;;;;5.72;5.13;;;;;;;;;;4947270;29;20043;-84
2024/01/20 00:35:20;;;;;;;6.80;5.03;;;;;;;;;;4932459;29;20499;-85
2024/01/20 00:38:04;;;;;;;7.70;5.30;;;;;;;;;;4943523;29;20090;-85
2024/01/20 00:40:48;;;;;;;7.55;4.88;;;;;;;;;;4928407;29;20050;-86
2024/01/20 00:43:32;;;;;;;7.07;4.72;;;;;;;;;;4928125;29;20127;-86
2024/01/20 00:46:16;;;;;;;10.77;5.55;;;;;;;;;;4946029;28;20552;-87
2024/01/20 00:49:00;;;;;;;7.78;5.63;;;;;;;;;;4947432;29;20050;-84
2024/01/20 00:51:44;;;;;;;6.68;5.85;;;;;;;;;;4928988;29;20122;-86
2024/01/20 00:54:27;;;;;;;9.60;6.18;;;;;;;;;;4944350;29;20588;-84
2024/01/20 00:57:11;;;;;;;7.47;6.30;;;;;;;;;;4945441;29;20042;-84
2024/01/20 00:59:55;;;;;;;8.23;6.22;;;;;;;;;;4929636;29;20408;-84
2024/01/20 01:02:39;;;;;;;14.57;6.20;;;;;;;;;;4926557;29;20038;-84
2024/01/20 01:05:24;;;;;;;10.30;6.40;;;;;;;;;;4938601;29;20145;-84
2024/01/20 01:08:07;;;;;;;8.07;6.15;;;;;;;;;;4928637;29;20074;-84
2024/01/20 01:10:54;;;;;;;11.25;6.57;;;;;;;;;;4942163;29;20106;-85
2024/01/20 01:13:39;;;;;;;9.60;6.53;;;;;;;;;;4931764;29;20500;-84
2024/01/20 01:16:23;;;;;;;9.90;6.93;;;;;;;;;;4928227;29;20038;-84
2024/01/20 01:19:07;;;;;;;7.63;6.80;;;;;;;;;;4927585;29;20385;-84
2024/01/20 01:21:51;;;;;;;16.15;6.95;;;;;;;;;;4928921;29;20040;-86
2024/01/20 01:24:35;;;;;;;12.20;6.32;;;;;;;;;;4926273;29;20098;-84
2024/01/20 01:27:19;;;;;;;14.20;6.97;;;;;;;;;;4928090;29;20102;-83
2024/01/20 01:30:04;;;;;;;8.73;6.18;;;;;;;;;;4934242;29;20133;-84
2024/01/20 01:32:48;;;;;;;8.70;6.22;;;;;;;;;;4927941;29;20047;-84
2024/01/20 01:35:32;;;;;;;8.27;6.45;;;;;;;;;;4935112;29;20042;-84
2024/01/20 01:38:16;;;;;;;7.80;6.07;;;;;;;;;;4945701;29;20398;-85
2024/01/20 01:41:00;;;;;;;7.90;6.00;;;;;;;;;;4929092;29;20074;-85
2024/01/20 01:43:44;;;;;;;9.23;6.68;;;;;;;;;;4926702;29;20093;-84
2024/01/20 01:46:31;;;;;;;13.13;6.40;;;;;;;;;;4925419;29;20718;-85
2024/01/20 01:49:15;;;;;;;8.20;6.40;;;;;;;;;;4928419;29;20046;-86
2024/01/20 01:51:59;;;;;;;11.50;7.03;;;;;;;;;;4942148;29;20039;-85
2024/01/20 01:54:43;;;;;;;10.05;6.97;;;;;;;;;;4944034;29;20099;-84
2024/01/20 01:57:28;;;;;;;11.52;6.65;;;;;;;;;;4945475;28;20039;-85
2024/01/20 02:00:12;;;;;;;10.90;6.93;;;;;;;;;;4944431;29;20390;-84
2024/01/20 02:02:56;;;;;;;8.63;6.40;;;;;;;;;;4945234;29;20165;-84
2024/01/20 02:05:40;;;;;;;11.82;6.90;;;;;;;;;;4927942;29;20390;-85
2024/01/20 02:08:25;;;;;;;8.23;6.50;;;;;;;;;;4940346;29;20047;-85
2024/01/20 02:11:09;;;;;;;8.45;6.78;;;;;;;;;;4930216;29;20066;-85
2024/01/20 02:13:54;;;;;;;10.98;6.95;;;;;;;;;;4927321;29;20201;-85
2024/01/20 02:16:37;;;;;;;7.38;6.68;;;;;;;;;;4947723;29;20066;-85
2024/01/20 02:19:21;;;;;;;9.50;7.80;;;;;;;;;;4926866;29;20039;-84
2024/01/20 02:22:15;;;;;;;8.35;7.43;;;;;;;;;;4935156;29;20070;-86
2024/01/20 02:24:59;;;;;;;10.57;8.13;;;;;;;;;;4928161;29;20113;-85
2024/01/20 02:27:43;;;;;;;13.70;7.65;;;;;;;;;;4929139;29;20524;-87
2024/01/20 02:30:27;;;;;;;16.45;7.95;;;;;;;;;;4945794;29;20532;-85
2024/01/20 02:33:11;;;;;;;9.88;7.85;;;;;;;;;;4936703;29;20564;-85
2024/01/20 02:35:55;;;;;;;9.38;8.32;;;;;;;;;;4928870;29;20038;-86
2024/01/20 02:38:39;;;;;;;10.55;7.93;;;;;;;;;;4928395;29;20042;-84
2024/01/20 02:41:22;;;;;;;10.32;8.13;;;;;;;;;;4944072;29;20035;-86
2024/01/20 02:44:09;;;;;;;13.00;8.45;;;;;;;;;;4934201;29;20066;-86
2024/01/20 02:46:53;;;;;;;15.68;8.60;;;;;;;;;;4930765;29;20062;-85
2024/01/20 02:49:37;;;;;;;15.07;8.93;;;;;;;;;;4928060;29;20046;-86
2024/01/20 02:52:21;;;;;;;10.63;8.50;;;;;;;;;;4935433;29;20054;-86
2024/01/20 02:55:05;;;;;;;11.85;8.52;;;;;;;;;;4927137;29;20046;-85
2024/01/20 02:57:49;;;;;;;13.80;8.60;;;;;;;;;;4948300;29;20034;-86
2024/01/20 03:00:33;;;;;;;12.35;8.70;;;;;;;;;;4947351;29;20061;-85
2024/01/20 03:03:17;;;;;;;11.05;9.40;;;;;;;;;;4942841;29;20035;-84
2024/01/20 03:06:02;;;;;;;11.80;9.10;;;;;;;;;;4944356;29;20733;-84
2024/01/20 03:08:46;;;;;;;14.82;8.85;;;;;;;;;;4939768;29;20082;-86
2024/01/20 03:11:30;;;;;;;9.93;8.93;;;;;;;;;;4924098;29;20424;-86
2024/01/20 03:14:14;;;;;;;14.23;9.52;;;;;;;;;;4943346;29;20038;-87
2024/01/20 03:16:58;;;;;;;12.32;8.55;;;;;;;;;;4938231;29;20042;-85
2024/01/20 03:19:42;;;;;;;11.45;9.07;;;;;;;;;;4945148;29;20050;-85
2024/01/20 03:22:26;;;;;;;14.52;9.50;;;;;;;;;;4929775;29;20443;-85
2024/01/20 03:25:10;;;;;;;11.60;8.95;;;;;;;;;;4939499;29;20458;-83
2024/01/20 03:27:55;;;;;;;15.88;9.63;;;;;;;;;;4941811;29;20069;-83
2024/01/20 03:30:39;;;;;;;9.15;7.75;;;;;;;;;;4947107;29;20030;-86
2024/01/20 03:33:23;;;;;;;14.38;8.63;;;;;;;;;;4928012;29;20038;-85
2024/01/20 03:36:07;;;;;;;12.52;8.82;;;;;;;;;;4928379;29;20102;-85
2024/01/20 03:38:51;;;;;;;8.90;8.00;;;;;;;;;;4929572;29;20073;-86
2024/01/20 03:41:35;;;;;;;10.77;8.38;;;;;;;;;;4926299;29;20734;-86
2024/01/20 03:44:19;;;;;;;13.25;8.20;;;;;;;;;;4940034;29;20043;-85
2024/01/20 03:47:03;;;;;;;12.30;7.93;;;;;;;;;;4926435;29;20569;-85
2024/01/20 03:49:47;;;;;;;11.38;8.10;;;;;;;;;;4934610;29;20052;-85
2024/01/20 03:52:31;;;;;;;8.93;8.02;;;;;;;;;;4937851;29;20517;-84
2024/01/20 03:55:15;;;;;;;10.98;7.78;;;;;;;;;;4932798;29;20037;-84
2024/01/20 03:57:59;;;;;;;11.18;8.13;;;;;;;;;;4943430;29;20090;-84
2024/01/20 04:00:43;;;;;;;10.00;8.32;;;;;;;;;;4940151;29;20091;-84
2024/01/20 04:03:27;;;;;;;14.50;8.88;;;;;;;;;;4931255;29;21123;-84
2024/01/20 04:06:11;;;;;;;12.35;8.50;;;;;;;;;;4927270;29;20115;-85
2024/01/20 04:08:55;;;;;;;15.32;10.65;;;;;;;;;;4929748;29;20038;-85
2024/01/20 04:11:39;;;;;;;13.00;8.63;;;;;;;;;;4926915;29;20043;-84
2024/01/20 04:14:23;;;;;;;12.13;8.40;;;;;;;;;;4943744;29;20166;-86
2024/01/20 04:17:07;;;;;;;11.70;8.07;;;;;;;;;;4944197;29;20042;-85
2024/01/20 04:19:51;;;;;;;11.00;8.05;;;;;;;;;;4929727;29;20038;-85
2024/01/20 04:22:35;;;;;;;11.85;8.05;;;;;;;;;;4928107;29;20042;-84
2024/01/20 04:25:19;;;;;;;8.38;7.50;;;;;;;;;;4933222;29;20039;-84
2024/01/20 04:28:03;;;;;;;12.82;7.65;;;;;;;;;;4934418;29;20050;-85
2024/01/20 04:30:47;;;;;;;8.95;7.80;;;;;;;;;;4935765;29;20026;-84
2024/01/20 04:33:31;;;;;;;8.45;7.57;;;;;;;;;;4953045;29;20106;-85
2024/01/20 04:36:15;;;;;;;10.02;8.23;;;;;;;;;;4932011;29;20046;-84
2024/01/20 04:38:59;;;;;;;10.25;7.75;;;;;;;;;;4940903;29;20135;-84
2024/01/20 04:41:43;;;;;;;9.43;7.63;;;;;;;;;;4934400;29;20042;-84
2024/01/20 04:44:27;;;;;;;15.65;7.75;;;;;;;;;;4945955;29;20042;-84
2024/01/20 04:47:11;;;;;;;9.45;7.32;;;;;;;;;;4925626;29;20054;-84
2024/01/20 04:49:55;;;;;;;10.93;7.30;;;;;;;;;;4930133;29;20038;-85
2024/01/20 04:52:39;;;;;;;8.35;7.30;;;;;;;;;;4932595;29;20106;-83
2024/01/20 04:55:23;;;;;;;12.52;7.93;;;;;;;;;;4935460;29;20477;-83
2024/01/20 04:58:07;;;;;;;9.38;7.20;;;;;;;;;;4930226;29;20090;-83
2024/01/20 05:00:51;;;;;;;10.07;7.43;;;;;;;;;;4937262;29;20035;-86
2024/01/20 05:03:34;;;;;;;9.98;7.32;;;;;;;;;;4931845;29;20162;-85
2024/01/20 05:06:19;;;;;;;10.23;6.90;;;;;;;;;;4939310;29;20043;-83
2024/01/20 05:09:04;;;;;;;9.52;7.20;;;;;;;;;;4929686;29;20042;-83
2024/01/20 05:11:48;;;;;;;10.18;6.68;;;;;;;;;;4944062;29;20051;-83
2024/01/20 05:14:32;;;;;;;11.90;6.95;;;;;;;;;;4940025;29;20109;-83
2024/01/20 05:17:16;;;;;;;12.43;6.97;;;;;;;;;;4927834;29;20082;-84
2024/01/20 05:20:00;;;;;;;9.98;6.68;;;;;;;;;;4935214;29;20528;-85
2024/01/20 05:22:44;;;;;;;14.93;6.35;;;;;;;;;;4941217;29;20409;-83
2024/01/20 05:25:28;;;;;;;7.63;6.13;;;;;;;;;;4931556;29;20035;-83
2024/01/20 05:28:12;;;;;;;6.60;6.00;;;;;;;;;;4935539;29;20054;-82
2024/01/20 05:30:56;;;;;;;8.23;5.85;;;;;;;;;;4944264;29;20569;-82
2024/01/20 05:33:40;;;;;;;7.97;7.00;;;;;;;;;;4932112;29;20402;-82
2024/01/20 05:36:23;;;;;;;8.95;5.90;;;;;;;;;;4944822;29;20143;-84
2024/01/20 05:39:07;;;;;;;7.10;6.20;;;;;;;;;;4924292;29;20401;-85
2024/01/20 05:41:51;;;;;;;10.23;6.95;;;;;;;;;;4928409;29;20046;-83
2024/01/20 05:44:35;;;;;;;8.82;6.38;;;;;;;;;;4933805;29;20154;-85
2024/01/20 05:47:19;;;;;;;10.85;6.18;;;;;;;;;;4930733;29;20394;-83
2024/01/20 05:50:03;;;;;;;6.97;6.00;;;;;;;;;;4926516;29;20509;-83
2024/01/20 05:52:48;;;;;;;10.15;7.45;;;;;;;;;;4928052;29;20497;-83
2024/01/20 05:55:34;;;;;;;9.50;6.63;;;;;;;;;;4935835;29;20145;-83
2024/01/20 05:58:18;;;;;;;8.75;6.47;;;;;;;;;;4940089;29;20054;-82
2024/01/20 06:01:01;;;;;;;6.20;5.70;;;;;;;;;;4942879;29;20090;-84
2024/01/20 06:03:46;;;;;;;8.10;6.18;;;;;;;;;;4928990;29;20039;-83
2024/01/20 06:06:30;;;;;;;6.30;5.70;;;;;;;;;;4948306;29;20094;-84
2024/01/20 06:09:14;;;;;;;10.05;5.95;;;;;;;;;;4941396;29;20063;-83
2024/01/20 06:11:57;;;;;;;9.18;5.68;;;;;;;;;;4934571;29;20038;-86
2024/01/20 06:14:42;;;;;;;6.90;5.93;;;;;;;;;;4928665;29;20102;-84
2024/01/20 06:17:25;;;;;;;11.27;5.60;;;;;;;;;;4931719;29;20099;-85
2024/01/20 06:20:09;;;;;;;6.20;5.00;;;;;;;;;;4933502;29;20124;-83
2024/01/20 06:22:53;;;;;;;6.70;5.30;;;;;;;;;;4936041;29;20117;-83
2024/01/20 06:25:37;;;;;;;6.80;5.28;;;;;;;;;;4934176;29;20058;-86
2024/01/20 06:28:21;;;;;;;9.02;5.65;;;;;;;;;;4942693;29;20058;-86
2024/01/20 06:31:05;;;;;;;7.28;5.28;;;;;;;;;;4928830;29;20095;-86
2024/01/20 06:33:49;;;;;;;7.32;5.20;;;;;;;;;;4925980;29;20122;-86
2024/01/20 06:36:33;;;;;;;7.75;5.20;;;;;;;;;;4942771;29;20103;-85
2024/01/20 06:39:17;;;;;;;5.50;4.95;;;;;;;;;;4940995;29;20046;-84
2024/01/20 06:42:01;;;;;;;6.43;5.22;;;;;;;;;;4941428;29;20034;-85
2024/01/20 06:44:45;;;;;;;7.28;5.65;;;;;;;;;;4927954;29;20092;-84
2024/01/20 06:47:29;;;;;;;6.80;5.07;;;;;;;;;;4926906;29;20453;-85
2024/01/20 06:50:15;;;;;;;5.10;4.65;;;;;;;;;;4930547;29;20126;-87
2024/01/20 06:52:59;;;;;;;8.73;5.60;;;;;;;;;;4943318;29;20043;-86
2024/01/20 06:55:43;;;;;;;7.38;5.25;;;;;;;;;;4942602;29;20401;-86
2024/01/20 06:58:26;;;;;;;12.43;8.77;;;;;;;;;;4929489;29;20122;-85
2024/01/20 07:01:11;;;;;;;6.82;6.03;;;;;;;;;;4929714;29;20099;-85
2024/01/20 07:03:55;;;;;;;5.68;5.13;;;;;;;;;;4939400;29;20098;-84
2024/01/20 07:06:39;;;;;;;6.28;5.50;;;;;;;;;;4942082;29;20102;-84
2024/01/20 07:09:23;;;;;;;8.23;5.28;;;;;;;;;;4940376;29;20389;-84
2024/01/20 07:12:08;;;;;;;9.68;4.80;;;;;;;;;;4939976;29;20178;-82
2024/01/20 07:14:52;;;;;;;8.40;4.68;;;;;;;;;;4932488;29;20046;-84
2024/01/20 07:17:36;;;;;;;5.30;4.50;;;;;;;;;;4943458;29;20062;-86
2024/01/20 07:20:20;;;;;;;9.77;4.88;;;;;;;;;;4925944;29;20082;-85
2024/01/20 07:23:04;;;;;;;5.25;4.70;;;;;;;;;;4924308;29;20118;-84
2024/01/20 07:25:48;;;;;;;5.47;4.57;;;;;;;;;;4930751;29;20049;-84
2024/01/20 07:28:32;;;;;;;6.78;4.95;;;;;;;;;;4932431;29;20081;-84
2024/01/20 07:31:16;;;;;;;4.80;4.30;;;;;;;;;;4922448;29;20051;-85
2024/01/20 07:34:00;;;;;;;6.88;4.20;;;;;;;;;;4926431;29;20414;-83
2024/01/20 07:36:44;;;;;;;5.57;4.47;;;;;;;;;;4927494;29;20047;-84
2024/01/20 07:39:28;;;;;;;7.95;4.53;;;;;;;;;;4924659;29;20046;-83
2024/01/20 07:42:12;;;;;;;8.25;4.53;;;;;;;;;;4940618;29;20042;-85
2024/01/20 07:44:56;;;;;;;6.55;4.70;;;;;;;;;;4926386;29;20042;-84
2024/01/20 07:47:40;;;;;;;5.78;4.32;;;;;;;;;;4922414;29;20071;-85
2024/01/20 07:50:25;;;;;;;9.70;4.78;;;;;;;;;;4929981;29;20457;-84
2024/01/20 07:53:10;;;;;;;8.70;5.22;;;;;;;;;;4925390;29;20039;-85
2024/01/20 07:55:53;;;;;;;12.57;5.90;;;;;;;;;;4937942;29;20057;-83
2024/01/20 07:58:37;;;;;;;7.32;4.85;;;;;;;;;;4944228;29;20085;-83
2024/01/20 08:01:21;;;;;;;9.00;4.50;;;;;;;;;;4930434;29;20803;-84
2024/01/20 08:04:05;;;;;;;6.53;5.00;;;;;;;;;;4926725;29;20132;-85
2024/01/20 08:06:49;;;;;;;5.72;4.72;;;;;;;;;;4925121;29;20501;-83
2024/01/20 08:09:33;;;;;;;7.70;4.65;;;;;;;;;;4928653;29;20584;-83
2024/01/20 08:12:17;;;;;;;9.15;4.78;;;;;;;;;;4929870;29;20070;-85
2024/01/20 08:15:01;;;;;;;5.55;4.40;;;;;;;;;;4929019;29;20121;-84
2024/01/20 08:17:45;;;;;;;6.72;4.28;;;;;;;;;;4927105;29;20042;-83
2024/01/20 08:20:29;;;;;;;9.68;5.00;;;;;;;;;;4938642;29;20031;-82
2024/01/20 08:23:13;;;;;;;7.90;5.10;;;;;;;;;;4925492;29;20043;-84
2024/01/20 08:26:00;;;;;;;7.70;4.10;;;;;;;;;;4925302;29;20050;-83
2024/01/20 08:28:44;;;;;;;9.93;4.00;;;;;;;;;;4941930;29;20066;-83
2024/01/20 08:31:28;;;;;;;7.18;4.50;;;;;;;;;;4928044;29;20042;-83
2024/01/20 08:34:11;;;;;;;13.98;4.10;;;;;;;;;;4924522;29;20091;-84
2024/01/20 08:36:55;;;;;;;9.30;4.88;;;;;;;;;;4946716;29;20100;-81
2024/01/20 08:39:39;;;;;;;10.55;4.57;;;;;;;;;;4934557;29;20059;-83
2024/01/20 08:42:23;;;;;;;6.95;4.55;;;;;;;;;;4926634;29;20481;-84
2024/01/20 08:45:08;;;;;;;11.27;4.97;;;;;;;;;;4924704;29;20039;-83
2024/01/20 08:47:52;;;;;;;7.88;4.70;;;;;;;;;;4929449;29;20133;-83
2024/01/20 08:50:36;;;;;;;10.95;5.70;;;;;;;;;;4937274;29;20031;-84
2024/01/20 08:53:20;;;;;;;6.18;5.00;;;;;;;;;;4936207;29;20106;-82
2024/01/20 08:56:04;;;;;;;5.57;4.63;;;;;;;;;;4922346;29;20094;-83
2024/01/20 08:58:48;;;;;;;6.13;5.00;;;;;;;;;;4921543;29;20035;-82
2024/01/20 09:01:32;;;;;;;9.95;4.70;;;;;;;;;;4926866;29;21178;-83
2024/01/20 09:04:16;;;;;;;9.77;4.75;;;;;;;;;;4941699;29;20517;-86
2024/01/20 09:07:00;;;;;;;9.45;4.65;;;;;;;;;;4934924;29;20050;-85
2024/01/20 09:09:44;;;;;;;8.05;6.05;;;;;;;;;;4933643;29;20118;-86
2024/01/20 09:12:52;;;;;;;9.73;4.90;;;;;;;;;;4930139;29;20038;-85
2024/01/20 09:15:36;;;;;;;8.23;5.00;;;;;;;;;;4929059;29;20122;-83
2024/01/20 09:18:20;;;;;;;15.50;5.03;;;;;;;;;;4925230;29;20394;-82
2024/01/20 09:21:09;;;;;;;5.43;4.65;;;;;;;;;;4934982;29;20101;-82
2024/01/20 09:23:53;;;;;;;7.35;5.30;;;;;;;;;;4939307;29;20035;-83
2024/01/20 09:26:37;;;;;;;10.63;4.20;;;;;;;;;;4929610;29;20090;-82
2024/01/20 09:29:21;;;;;;;8.98;4.43;;;;;;;;;;4930931;29;20058;-83
2024/01/20 09:32:05;;;;;;;9.52;4.97;;;;;;;;;;4930207;29;20099;-82
2024/01/20 09:34:49;;;;;;;11.43;4.82;;;;;;;;;;4930772;29;20513;-83
2024/01/20 09:37:36;;;;;;;10.32;4.40;;;;;;;;;;4928626;29;20047;-82
2024/01/20 09:40:20;;;;;;;11.55;4.45;;;;;;;;;;4943749;29;20050;-82
2024/01/20 09:43:04;;;;;;;7.97;3.70;;;;;;;;;;4929041;29;20039;-83
2024/01/20 09:45:49;;;;;;;9.02;3.65;;;;;;;;;;4928843;29;20139;-83
2024/01/20 09:48:33;;;;;;;7.38;3.60;;;;;;;;;;4927459;29;20046;-83
2024/01/20 09:51:24;;;;;;;9.48;3.90;;;;;;;;;;4926736;29;20078;-81
2024/01/20 09:54:08;;;;;;;6.80;4.30;;;;;;;;;;4930900;29;20102;-83
2024/01/20 09:56:52;;;;;;;15.27;4.32;;;;;;;;;;4936853;29;20047;-82
2024/01/20 09:59:37;;;;;;;11.55;4.07;;;;;;;;;;4947468;29;20107;-83
2024/01/20 10:02:21;;;;;;;7.00;3.92;;;;;;;;;;4927012;29;20066;-82
2024/01/20 10:05:08;;;;;;;6.97;4.05;;;;;;;;;;4942205;29;20086;-82
2024/01/20 10:07:52;;;;;;;11.52;4.15;;;;;;;;;;4931276;29;20123;-83
2024/01/20 10:10:37;;;;;;;9.68;4.47;;;;;;;;;;4929725;29;20201;-82
2024/01/20 10:13:20;;;;;;;9.13;4.10;;;;;;;;;;4931060;29;20038;-83
2024/01/20 10:16:05;;;;;;;7.07;4.32;;;;;;;;;;4932155;29;20198;-84
2024/01/20 10:18:48;;;;;;;7.50;4.45;;;;;;;;;;4925525;28;20583;-83
2024/01/20 10:21:43;;;;;;;9.30;4.63;;;;;;;;;;4940738;29;20046;-84
2024/01/20 10:24:27;;;;;;;12.05;4.45;;;;;;;;;;4924978;29;20075;-82
2024/01/20 10:27:18;;;;;;;9.00;4.53;;;;;;;;;;4932424;29;20397;-84
2024/01/20 10:30:02;;;;;;;7.97;4.07;;;;;;;;;;4920388;29;20058;-84
2024/01/20 10:32:46;;;;;;;8.27;4.30;;;;;;;;;;4927519;29;20126;-84
2024/01/20 10:35:31;;;;;;;12.38;4.18;;;;;;;;;;4925534;29;21121;-83
2024/01/20 10:38:18;;;;;;;8.73;3.97;;;;;;;;;;4941576;29;20454;-84
2024/01/20 10:41:03;;;;;;;9.05;3.90;;;;;;;;;;4940001;29;20103;-83
2024/01/20 10:43:52;;;;;;;6.57;4.13;;;;;;;;;;4942185;29;20038;-84
2024/01/20 10:46:36;;;;;;;12.07;5.40;;;;;;;;;;4925058;29;20138;-84
2024/01/20 10:49:22;;;;;;;14.15;5.13;;;;;;;;;;4925035;29;20042;-83
2024/01/20 10:52:06;;;;;;;7.80;5.50;;;;;;;;;;4925946;29;20055;-84
2024/01/20 10:54:51;;;;;;;12.30;5.70;;;;;;;;;;4922330;29;20050;-84
2024/01/20 10:57:35;;;;;;;11.77;4.85;;;;;;;;;;4930512;29;20504;-83
2024/01/20 11:00:19;;;;;;;10.18;5.60;;;;;;;;;;4942323;29;20098;-84
2024/01/20 11:03:09;;;;;;;10.88;5.03;;;;;;;;;;4926277;29;20410;-85
2024/01/20 11:05:59;;;;;;;13.10;6.00;;;;;;;;;;4926033;29;20172;-84
2024/01/20 11:08:48;;;;;;;12.43;5.65;;;;;;;;;;4946454;29;20159;-85
2024/01/20 11:11:35;;;;;;;9.90;5.80;;;;;;;;;;4925486;29;20038;-85
2024/01/20 11:14:26;;;;;;;7.03;4.85;;;;;;;;;;4943063;29;20402;-85
2024/01/20 11:17:11;;;;;;;15.27;6.93;;;;;;;;;;4927893;29;20110;-84
2024/01/20 11:20:05;;;;;;;10.43;5.45;;;;;;;;;;4939592;29;20042;-83
2024/01/20 11:22:52;;;;;;;11.07;6.00;;;;;;;;;;4926206;29;20533;-85
2024/01/20 11:25:36;;;;;;;17.80;5.50;;;;;;;;;;4929105;29;20042;-84
2024/01/20 11:28:24;;;;;;;11.38;5.45;;;;;;;;;;4941949;29;20103;-84
2024/01/20 11:31:18;;;;;;;10.88;5.18;;;;;;;;;;4933765;29;20107;-84
2024/01/20 11:34:04;;;;;;;13.15;6.68;;;;;;;;;;4927843;29;20046;-85
2024/01/20 11:36:48;;;;;;;12.23;6.40;;;;;;;;;;4928087;29;20147;-85
2024/01/20 11:39:32;;;;;;;10.70;5.75;;;;;;;;;;4921562;29;20099;-85
2024/01/20 11:42:19;;;;;;;6.55;4.75;;;;;;;;;;4932037;29;20105;-84
2024/01/20 11:45:03;;;;;;;8.88;4.78;;;;;;;;;;4941627;29;20467;-84
2024/01/20 11:47:48;;;;;;;10.82;5.57;;;;;;;;;;4940075;29;20050;-84
2024/01/20 11:50:33;;;;;;;11.45;4.70;;;;;;;;;;4945436;29;20054;-84
2024/01/20 11:53:17;;;;;;;9.85;5.18;;;;;;;;;;4936554;29;20050;-83
2024/01/20 11:56:03;;;;;;;9.95;5.88;;;;;;;;;;4943904;29;20070;-84
2024/01/20 11:58:47;;;;;;;7.57;5.40;;;;;;;;;;4945375;29;20042;-84
2024/01/20 12:01:37;;;;;;;13.00;5.40;;;;;;;;;;4928884;29;20445;-84
2024/01/20 12:04:24;;;;;;;8.35;4.85;;;;;;;;;;4940352;29;20050;-83
2024/01/20 12:07:08;;;;;;;7.88;5.25;;;;;;;;;;4916981;29;20039;-84
2024/01/20 12:09:52;;;;;;;12.18;5.05;;;;;;;;;;4930850;29;20098;-85
2024/01/20 12:12:36;;;;;;;12.02;5.78;;;;;;;;;;4940802;29;20178;-84
2024/01/20 12:15:20;;;;;;;11.02;5.75;;;;;;;;;;4937571;29;20179;-85
2024/01/20 12:18:04;;;;;;;11.27;5.68;;;;;;;;;;4926455;29;20047;-86
2024/01/20 12:20:48;;;;;;;10.88;5.43;;;;;;;;;;4931046;29;20042;-85
2024/01/20 12:23:32;;;;;;;8.25;5.72;;;;;;;;;;4928897;29;20103;-85
2024/01/20 12:26:16;;;;;;;13.27;6.43;;;;;;;;;;4934961;29;20063;-85
2024/01/20 12:29:00;;;;;;;10.82;5.80;;;;;;;;;;4936772;29;20071;-86
2024/01/20 12:31:43;;;;;;;16.75;6.55;;;;;;;;;;4943575;29;20509;-84
2024/01/20 12:34:27;;;;;;;15.32;5.40;;;;;;;;;;4925743;29;20094;-85
2024/01/20 12:37:11;;;;;;;12.90;5.43;;;;;;;;;;4920221;29;20116;-84
2024/01/20 12:39:55;;;;;;;15.48;5.82;;;;;;;;;;4928530;29;20046;-85
2024/01/20 12:42:39;;;;;;;8.75;5.63;;;;;;;;;;4931243;29;20047;-84
2024/01/20 12:45:23;;;;;;;13.73;5.82;;;;;;;;;;4926894;29;20038;-84
2024/01/20 12:48:07;;;;;;;12.27;5.47;;;;;;;;;;4942192;29;20569;-84
2024/01/20 12:50:51;;;;;;;10.13;6.00;;;;;;;;;;4932779;29;20065;-86
2024/01/20 12:53:35;;;;;;;11.02;6.47;;;;;;;;;;4929906;29;20051;-85
2024/01/20 12:56:20;;;;;;;16.50;5.95;;;;;;;;;;4931142;29;20041;-85
2024/01/20 12:59:05;;;;;;;14.05;5.88;;;;;;;;;;4940866;29;20074;-86
2024/01/20 13:01:49;;;;;;;14.25;6.30;;;;;;;;;;4929001;29;20046;-86
2024/01/20 13:04:34;;;;;;;16.15;7.72;;;;;;;;;;4937943;29;20034;-85
2024/01/20 13:07:18;;;;;;;13.57;6.20;;;;;;;;;;4933042;29;20093;-85
2024/01/20 13:10:04;;;;;;;15.95;6.57;;;;;;;;;;4932401;29;20050;-84
2024/01/20 13:12:48;;;;;;;8.55;5.93;;;;;;;;;;4927467;29;20061;-87
2024/01/20 13:15:32;;;;;;;18.52;6.10;;;;;;;;;;4939953;29;20035;-85
2024/01/20 13:18:19;;;;;;;7.95;5.40;;;;;;;;;;4931699;29;20102;-86
2024/01/20 13:21:03;;;;;;;21.52;6.60;;;;;;;;;;4930882;29;20098;-84
2024/01/20 13:23:47;;;;;;;15.85;6.10;;;;;;;;;;4928806;29;20121;-84
2024/01/20 13:26:32;;;;;;;14.48;5.78;;;;;;;;;;4932556;29;20509;-85
2024/01/20 13:29:15;;;;;;;11.13;5.82;;;;;;;;;;4916123;29;20562;-86
2024/01/20 13:32:00;;;;;;;12.35;6.68;;;;;;;;;;4900614;29;20525;-86
2024/01/20 13:34:44;;;;;;;11.82;6.35;;;;;;;;;;4903575;29;20044;-87
2024/01/20 13:37:28;;;;;;;14.25;8.32;;;;;;;;;;4907873;29;20116;-84
2024/01/20 13:40:12;;;;;;;20.15;9.60;;;;;;;;;;4905227;29;20092;-87
2024/01/20 13:42:56;;;;;;;23.73;7.90;;;;;;;;;;4891797;29;20047;-86
2024/01/20 13:45:46;;;;;;;16.88;8.93;;;;;;;;;;4904357;29;20119;-88
2024/01/20 13:48:58;;;;;;;21.45;8.18;;;;;;;;;;4890193;29;20096;-88
2024/01/20 13:51:43;;;;;;;19.00;8.75;;;;;;;;;;4906577;29;20096;-85
2024/01/20 13:54:27;;;;;;;15.60;9.15;;;;;;;;;;4892384;29;20046;-85
2024/01/20 13:57:12;;;;;;;15.05;8.65;;;;;;;;;;4904576;29;20395;-85
2024/01/20 14:03:06;;;;;;;14.27;8.77;;;;;;;;;;4905392;29;20039;-90
2024/01/20 14:06:19;;;;;;;18.77;10.20;;;;;;;;;;4905396;29;20451;-86
2024/01/20 14:16:27;;;;;;;20.80;12.68;;;;;;;;;;4905781;29;20047;-88
2024/01/20 14:41:18;;;;;;;17.30;10.27;;;;;;;;;;4947412;29;20560;-90
2024/01/20 14:44:14;;;;;;;15.60;10.38;;;;;;;;;;4944545;29;20091;-91
2024/01/20 14:47:08;;;;;;;21.23;11.32;;;;;;;;;;4933350;29;20094;-90
2024/01/20 14:50:07;;;;;;;12.15;10.40;;;;;;;;;;4933622;29;20047;-89
2024/01/20 14:59:39;;;;;;;19.38;11.38;;;;;;;;;;4948949;29;20057;-88
2024/01/20 15:02:23;;;;;;;23.02;11.93;;;;;;;;;;4919720;29;20099;-88
2024/01/20 15:05:08;;;;;;;15.13;11.48;;;;;;;;;;4932303;28;20074;-88
2024/01/20 15:08:12;;;;;;;25.15;13.75;;;;;;;;;;4933723;29;20122;-88
2024/01/20 15:11:02;;;;;;;16.45;11.40;;;;;;;;;;4945461;29;20043;-88
2024/01/20 15:13:46;;;;;;;16.75;10.48;;;;;;;;;;4931366;29;20069;-89
2024/01/20 15:16:35;;;;;;;16.23;11.43;;;;;;;;;;4931289;29;20131;-88
2024/01/20 15:19:20;;;;;;;12.25;10.90;;;;;;;;;;4930483;29;20090;-88
2024/01/20 15:22:05;;;;;;;17.15;10.50;;;;;;;;;;4933952;29;20095;-89
2024/01/20 15:24:50;;;;;;;20.38;10.85;;;;;;;;;;4932678;29;20108;-89
2024/01/20 15:27:40;;;;;;;17.67;10.70;;;;;;;;;;4928052;29;20054;-89
2024/01/20 15:30:25;;;;;;;27.98;9.57;;;;;;;;;;4931365;29;20046;-84
2024/01/20 15:33:09;;;;;;;16.60;10.68;;;;;;;;;;4942038;28;20413;-86
2024/01/20 15:35:58;;;;;;;19.83;11.02;;;;;;;;;;4930918;29;20066;-84
2024/01/20 15:38:43;;;;;;;18.38;12.82;;;;;;;;;;4932083;29;20033;-86
2024/01/20 15:41:27;;;;;;;23.40;12.57;;;;;;;;;;4928273;29;20119;-87
2024/01/20 15:44:14;;;;;;;14.15;12.50;;;;;;;;;;4944152;29;20095;-84
2024/01/20 15:47:00;;;;;;;25.70;13.65;;;;;;;;;;4946697;29;20047;-83
2024/01/20 15:49:44;;;;;;;22.20;13.90;;;;;;;;;;4929125;29;20050;-84
2024/01/20 15:52:29;;;;;;;21.98;11.80;;;;;;;;;;4933520;29;20050;-83
2024/01/20 15:55:13;;;;;;;19.42;14.57;;;;;;;;;;4924667;29;20042;-84
2024/01/20 15:57:57;;;;;;;19.30;14.02;;;;;;;;;;4944290;29;20100;-85
2024/01/20 16:00:41;;;;;;;16.85;12.15;;;;;;;;;;4924972;29;20148;-86
2024/01/20 16:03:25;;;;;;;16.23;12.20;;;;;;;;;;4928174;29;20042;-85
2024/01/20 16:06:09;;;;;;;24.02;12.50;;;;;;;;;;4928556;29;20050;-86
2024/01/20 16:08:56;;;;;;;25.15;13.77;;;;;;;;;;4946304;29;20126;-85
2024/01/20 16:11:41;;;;;;;22.40;13.10;;;;;;;;;;4922253;29;20062;-88
2024/01/20 16:14:26;;;;;;;25.35;12.90;;;;;;;;;;4943311;29;20090;-85
2024/01/20 16:17:15;;;;;;;13.93;11.88;;;;;;;;;;4934352;29;20049;-86
2024/01/20 16:19:59;;;;;;;20.27;11.13;;;;;;;;;;4931044;29;20075;-85
2024/01/20 16:22:46;;;;;;;20.77;12.00;;;;;;;;;;4936661;29;20039;-86
2024/01/20 16:25:36;;;;;;;23.33;10.40;;;;;;;;;;4933945;29;20030;-86
2024/01/20 16:28:20;;;;;;;21.77;11.45;;;;;;;;;;4930311;29;20046;-85
2024/01/20 16:31:04;;;;;;;35.85;19.08;;;;;;;;;;4928943;29;20091;-88
2024/01/20 16:33:48;;;;;;;28.52;16.00;;;;;;;;;;4928106;29;20501;-86
2024/01/20 16:36:32;;;;;;;40.22;20.48;;;;;;;;;;4930116;29;20568;-84
2024/01/20 16:39:17;;;;;;;23.85;14.70;;;;;;;;;;4928292;29;20039;-85
2024/01/20 16:42:01;;;;;;;38.25;19.63;;;;;;;;;;4943307;29;20046;-89
2024/01/20 16:44:45;;;;;;;28.90;14.23;;;;;;;;;;4946252;29;20109;-92
2024/01/20 16:47:32;;;;;;;22.10;14.05;;;;;;;;;;4947373;29;20041;-90
2024/01/20 16:50:19;;;;;;;27.30;13.60;;;;;;;;;;4934163;29;20127;-88
2024/01/20 16:53:04;;;;;;;32.13;15.80;;;;;;;;;;4944030;29;20038;-89
2024/01/20 16:55:48;;;;;;;23.27;12.98;;;;;;;;;;4942616;29;20051;-89
2024/01/20 16:58:40;;;;;;;25.70;13.85;;;;;;;;;;4930347;29;20050;-90